Time;durP1;ratioP1;P1;durP2;ratioP2;P2;SDS_P1;SDS_P2;PMS_P1;PMS_P2;Temp;Humidity;BMP_temperature;BMP_pressure;BME280_temperature;BME280_humidity;BME280_pressure;Samples;Min_cycle;Max_cycle;Signal;HPM_P1;HPM_P2
2022/07/08 00:00:25;;;;;;;;;;;13.70;99.90;;;;;;5068616;28;20403;-73
2022/07/08 00:02:52;;;;;;;;;;;13.60;99.90;;;;;;5068250;28;19925;-73
2022/07/08 00:05:18;;;;;;;;;;;13.60;99.90;;;;;;5067687;28;19975;-73
2022/07/08 00:07:45;;;;;;;;;;;13.60;99.90;;;;;;5069451;28;19979;-73
2022/07/08 00:10:13;;;;;;;;;;;13.50;99.90;;;;;;5065116;28;19994;-75
2022/07/08 00:12:41;;;;;;;;;;;13.40;99.90;;;;;;5069035;28;19924;-75
2022/07/08 00:15:09;;;;;;;;;;;13.30;99.90;;;;;;5070536;28;19925;-74
2022/07/08 00:17:35;;;;;;;;;;;13.30;99.90;;;;;;5072537;28;19925;-74
2022/07/08 00:20:03;;;;;;;;;;;13.30;99.90;;;;;;5070355;28;20024;-73
2022/07/08 00:22:30;;;;;;;;;;;13.30;99.90;;;;;;5072596;28;19968;-73
2022/07/08 00:24:57;;;;;;;;;;;13.30;99.90;;;;;;5071584;28;20464;-74
2022/07/08 00:27:25;;;;;;;;;;;13.20;99.90;;;;;;5070660;28;19960;-74
2022/07/08 00:29:51;;;;;;;;;;;13.10;99.90;;;;;;5069439;28;20043;-74
2022/07/08 00:32:18;;;;;;;;;;;13.10;99.90;;;;;;5071609;28;19971;-74
2022/07/08 00:34:45;;;;;;;;;;;13.00;99.90;;;;;;5069568;28;19940;-74
2022/07/08 00:37:12;;;;;;;;;;;13.00;99.90;;;;;;5072871;28;19990;-73
2022/07/08 00:39:38;;;;;;;;;;;13.00;99.90;;;;;;5071758;28;20016;-73
2022/07/08 00:42:05;;;;;;;;;;;13.00;99.90;;;;;;5072032;28;19971;-72
2022/07/08 00:44:34;;;;;;;;;;;12.90;99.90;;;;;;5070174;28;19967;-73
2022/07/08 00:47:00;;;;;;;;;;;12.90;99.90;;;;;;5071295;28;19924;-76
2022/07/08 00:49:28;;;;;;;;;;;12.90;99.90;;;;;;5070840;28;19959;-75
2022/07/08 00:51:55;;;;;;;;;;;12.80;99.90;;;;;;5072914;28;19932;-75
2022/07/08 00:54:22;;;;;;;;;;;12.70;99.90;;;;;;5071329;28;20356;-75
2022/07/08 00:56:49;;;;;;;;;;;12.70;99.90;;;;;;5072027;28;20326;-75
2022/07/08 00:59:15;;;;;;;;;;;12.70;99.90;;;;;;5070706;28;20023;-75
2022/07/08 01:01:43;;;;;;;;;;;12.60;99.90;;;;;;5071820;28;20411;-74
2022/07/08 01:04:10;;;;;;;;;;;12.60;99.90;;;;;;5068472;28;20018;-75
2022/07/08 01:06:37;;;;;;;;;;;12.60;99.90;;;;;;5057677;28;19940;-75
2022/07/08 01:09:04;;;;;;;;;;;12.60;99.90;;;;;;5070954;28;19968;-74
2022/07/08 01:11:30;;;;;;;;;;;12.50;99.90;;;;;;5071149;28;20316;-75
2022/07/08 01:13:57;;;;;;;;;;;12.50;99.90;;;;;;5069247;28;19924;-74
2022/07/08 01:16:24;;;;;;;;;;;12.40;99.90;;;;;;5071866;28;19967;-75
2022/07/08 01:18:52;;;;;;;;;;;12.40;99.90;;;;;;5070126;28;19930;-74
2022/07/08 01:21:20;;;;;;;;;;;12.30;99.90;;;;;;5072937;28;19959;-73
2022/07/08 01:23:47;;;;;;;;;;;12.30;99.90;;;;;;5071042;28;19974;-75
2022/07/08 01:26:14;;;;;;;;;;;12.20;99.90;;;;;;5071954;28;20013;-75
2022/07/08 01:28:43;;;;;;;;;;;12.20;99.90;;;;;;5069849;28;20386;-75
2022/07/08 01:31:09;;;;;;;;;;;12.20;99.90;;;;;;5069988;28;19978;-75
2022/07/08 01:33:36;;;;;;;;;;;12.10;99.90;;;;;;5069214;28;19978;-74
2022/07/08 01:36:03;;;;;;;;;;;12.10;99.90;;;;;;5071787;28;20008;-75
2022/07/08 01:38:31;;;;;;;;;;;12.10;99.90;;;;;;5070587;28;19928;-75
2022/07/08 01:40:58;;;;;;;;;;;12.10;99.90;;;;;;5072025;28;20007;-74
2022/07/08 01:43:25;;;;;;;;;;;12.00;99.90;;;;;;5069684;28;19974;-75
2022/07/08 01:45:52;;;;;;;;;;;12.00;99.90;;;;;;5070771;28;19931;-74
2022/07/08 01:48:18;;;;;;;;;;;11.90;99.90;;;;;;5069781;28;19932;-75
2022/07/08 01:50:45;;;;;;;;;;;11.90;99.90;;;;;;5070423;28;19954;-75
2022/07/08 01:53:12;;;;;;;;;;;11.90;99.90;;;;;;5069023;28;19931;-75
2022/07/08 01:55:41;;;;;;;;;;;11.90;99.90;;;;;;5071197;28;19924;-75
2022/07/08 01:58:07;;;;;;;;;;;11.90;99.90;;;;;;5069895;28;20385;-74
2022/07/08 02:00:34;;;;;;;;;;;11.90;99.90;;;;;;5070381;28;20003;-75
2022/07/08 02:03:01;;;;;;;;;;;11.80;99.90;;;;;;5070743;28;19975;-75
2022/07/08 02:05:27;;;;;;;;;;;11.80;99.90;;;;;;5067589;28;19951;-75
2022/07/08 02:07:54;;;;;;;;;;;11.80;99.90;;;;;;5070500;28;20007;-75
2022/07/08 02:10:21;;;;;;;;;;;11.80;99.90;;;;;;5065772;28;20427;-75
2022/07/08 02:12:48;;;;;;;;;;;11.80;99.90;;;;;;5071050;28;19950;-75
2022/07/08 02:15:14;;;;;;;;;;;11.70;99.90;;;;;;5068720;28;19928;-76
2022/07/08 02:17:42;;;;;;;;;;;11.70;99.90;;;;;;5070270;28;20011;-75
2022/07/08 02:20:10;;;;;;;;;;;11.60;99.90;;;;;;5068994;28;19931;-76
2022/07/08 02:22:37;;;;;;;;;;;11.60;99.90;;;;;;5070873;28;19928;-77
2022/07/08 02:25:05;;;;;;;;;;;11.60;99.90;;;;;;5069920;28;20007;-76
2022/07/08 02:27:32;;;;;;;;;;;11.60;99.90;;;;;;5070412;28;19948;-75
2022/07/08 02:30:00;;;;;;;;;;;11.60;99.90;;;;;;5069621;28;19932;-75
2022/07/08 02:32:26;;;;;;;;;;;11.60;99.90;;;;;;5071008;28;19925;-74
2022/07/08 02:34:53;;;;;;;;;;;11.50;99.90;;;;;;5068731;28;19970;-75
2022/07/08 02:37:20;;;;;;;;;;;11.50;99.90;;;;;;5071303;28;19975;-75
2022/07/08 02:39:47;;;;;;;;;;;11.40;99.90;;;;;;5067719;28;19936;-76
2022/07/08 02:42:14;;;;;;;;;;;11.40;99.90;;;;;;5068393;28;20018;-76
2022/07/08 02:44:40;;;;;;;;;;;11.40;99.90;;;;;;5066113;28;20008;-74
2022/07/08 02:47:09;;;;;;;;;;;11.40;99.90;;;;;;5068316;28;19924;-74
2022/07/08 02:49:35;;;;;;;;;;;11.30;99.90;;;;;;5069900;28;19924;-74
2022/07/08 02:52:02;;;;;;;;;;;11.30;99.90;;;;;;5069660;28;19924;-75
2022/07/08 02:54:29;;;;;;;;;;;11.40;99.90;;;;;;5062334;28;19935;-74
2022/07/08 02:56:55;;;;;;;;;;;11.30;99.90;;;;;;5058277;28;20399;-74
2022/07/08 02:59:22;;;;;;;;;;;11.30;99.90;;;;;;5057968;28;19936;-75
2022/07/08 03:01:49;;;;;;;;;;;11.30;99.90;;;;;;5057877;28;19960;-74
2022/07/08 03:04:17;;;;;;;;;;;11.30;99.90;;;;;;5061949;28;20614;-73
2022/07/08 03:06:43;;;;;;;;;;;11.30;99.90;;;;;;5062596;28;20028;-73
2022/07/08 03:09:10;;;;;;;;;;;11.20;99.90;;;;;;5058139;28;19962;-73
2022/07/08 03:11:37;;;;;;;;;;;11.20;99.90;;;;;;5059420;28;19947;-73
2022/07/08 03:14:04;;;;;;;;;;;11.20;99.90;;;;;;5060194;28;19931;-73
2022/07/08 03:16:30;;;;;;;;;;;11.20;99.90;;;;;;5055873;28;19932;-74
2022/07/08 03:18:57;;;;;;;;;;;11.20;99.90;;;;;;5056026;28;19968;-73
2022/07/08 03:21:25;;;;;;;;;;;11.20;99.90;;;;;;5055475;28;19924;-75
2022/07/08 03:23:53;;;;;;;;;;;11.20;99.90;;;;;;5053371;28;20390;-75
2022/07/08 03:26:20;;;;;;;;;;;11.10;99.90;;;;;;5064925;28;19932;-75
2022/07/08 03:28:47;;;;;;;;;;;11.10;99.90;;;;;;5058445;28;19928;-74
2022/07/08 03:31:14;;;;;;;;;;;11.00;99.90;;;;;;5059396;28;20019;-75
2022/07/08 03:33:40;;;;;;;;;;;11.00;99.90;;;;;;5062939;28;19931;-75
2022/07/08 03:36:07;;;;;;;;;;;11.00;99.90;;;;;;5058559;28;19963;-75
2022/07/08 03:38:36;;;;;;;;;;;11.00;99.90;;;;;;5062136;28;19999;-75
2022/07/08 03:41:23;;;;;;;;;;;11.00;99.90;;;;;;5056952;28;20349;-75
2022/07/08 03:43:50;;;;;;;;;;;11.00;99.90;;;;;;5062879;28;20136;-76
2022/07/08 03:46:17;;;;;;;;;;;11.00;99.90;;;;;;5063591;28;20027;-76
2022/07/08 03:48:44;;;;;;;;;;;11.00;99.90;;;;;;5063920;28;20387;-76
2022/07/08 03:51:11;;;;;;;;;;;11.00;99.90;;;;;;5068170;28;19930;-76
2022/07/08 03:53:39;;;;;;;;;;;10.90;99.90;;;;;;5070640;28;20846;-75
2022/07/08 03:56:06;;;;;;;;;;;11.00;99.90;;;;;;5068779;28;20048;-75
2022/07/08 03:58:33;;;;;;;;;;;11.00;99.90;;;;;;5064732;28;19924;-75
2022/07/08 04:01:00;;;;;;;;;;;11.00;99.90;;;;;;5069528;28;19930;-77
2022/07/08 04:03:26;;;;;;;;;;;11.00;99.90;;;;;;5068294;28;19928;-76
2022/07/08 04:05:53;;;;;;;;;;;11.00;99.90;;;;;;5068376;28;19925;-76
2022/07/08 04:08:20;;;;;;;;;;;11.10;99.90;;;;;;5068146;28;20015;-75
2022/07/08 04:10:48;;;;;;;;;;;11.10;99.90;;;;;;5069300;28;20483;-76
2022/07/08 04:13:14;;;;;;;;;;;11.10;99.90;;;;;;5069170;28;19970;-76
2022/07/08 04:15:41;;;;;;;;;;;11.20;99.90;;;;;;5069891;28;19931;-77
2022/07/08 04:18:08;;;;;;;;;;;11.20;99.90;;;;;;5068219;28;20011;-76
2022/07/08 04:20:35;;;;;;;;;;;11.20;99.90;;;;;;5069444;28;20052;-76
2022/07/08 04:23:01;;;;;;;;;;;11.30;99.90;;;;;;5066014;28;19924;-76
2022/07/08 04:25:28;;;;;;;;;;;11.30;99.90;;;;;;5067409;28;20016;-75
2022/07/08 04:27:56;;;;;;;;;;;11.30;99.90;;;;;;5069979;28;19975;-76
2022/07/08 04:30:23;;;;;;;;;;;11.30;99.90;;;;;;5066847;28;19974;-73
2022/07/08 04:32:49;;;;;;;;;;;11.30;99.90;;;;;;5069966;28;19931;-74
2022/07/08 04:35:16;;;;;;;;;;;11.30;99.90;;;;;;5067857;28;20156;-73
2022/07/08 04:37:43;;;;;;;;;;;11.40;99.90;;;;;;5066204;28;19932;-73
2022/07/08 04:40:10;;;;;;;;;;;11.30;99.90;;;;;;5068808;28;19936;-72
2022/07/08 04:42:37;;;;;;;;;;;11.30;99.90;;;;;;5065389;28;20009;-76
2022/07/08 04:45:06;;;;;;;;;;;11.40;99.90;;;;;;5065957;28;20445;-74
2022/07/08 04:47:32;;;;;;;;;;;11.40;99.90;;;;;;5067261;28;20357;-75
2022/07/08 04:49:59;;;;;;;;;;;11.50;99.90;;;;;;5066228;28;20506;-76
2022/07/08 04:52:26;;;;;;;;;;;11.60;99.90;;;;;;5063573;28;19970;-76
2022/07/08 04:54:52;;;;;;;;;;;11.60;99.90;;;;;;5065576;28;19928;-75
2022/07/08 04:57:20;;;;;;;;;;;11.60;99.90;;;;;;5068746;28;19948;-75
2022/07/08 04:59:46;;;;;;;;;;;11.60;99.90;;;;;;5065127;28;20517;-75
2022/07/08 05:02:14;;;;;;;;;;;11.60;99.90;;;;;;5067694;28;20023;-75
2022/07/08 05:04:41;;;;;;;;;;;11.70;99.90;;;;;;5065067;28;19971;-74
2022/07/08 05:07:08;;;;;;;;;;;11.90;99.90;;;;;;5067184;28;19931;-75
2022/07/08 05:09:34;;;;;;;;;;;11.90;99.90;;;;;;5066083;28;20010;-75
2022/07/08 05:12:01;;;;;;;;;;;11.90;99.90;;;;;;5068402;28;20011;-75
2022/07/08 05:14:28;;;;;;;;;;;12.00;99.90;;;;;;5065807;28;19938;-74
2022/07/08 05:16:54;;;;;;;;;;;12.10;99.90;;;;;;5068166;28;19931;-75
2022/07/08 05:19:22;;;;;;;;;;;12.20;99.90;;;;;;5066649;28;19925;-75
2022/07/08 05:21:49;;;;;;;;;;;12.30;99.90;;;;;;5063357;28;20446;-74
2022/07/08 05:24:16;;;;;;;;;;;12.40;99.90;;;;;;5066098;28;20551;-74
2022/07/08 05:26:42;;;;;;;;;;;12.40;99.90;;;;;;5069307;28;19924;-74
2022/07/08 05:29:09;;;;;;;;;;;12.50;99.90;;;;;;5066416;28;19975;-74
2022/07/08 05:31:36;;;;;;;;;;;12.60;99.90;;;;;;5065841;28;20019;-74
2022/07/08 05:34:02;;;;;;;;;;;12.70;99.90;;;;;;5068121;28;20355;-72
2022/07/08 05:36:31;;;;;;;;;;;12.90;99.90;;;;;;5067304;28;19967;-75
2022/07/08 05:38:58;;;;;;;;;;;13.00;99.90;;;;;;5066892;28;19930;-71
2022/07/08 05:41:24;;;;;;;;;;;13.10;99.90;;;;;;5063722;28;20011;-72
2022/07/08 05:43:51;;;;;;;;;;;13.20;99.90;;;;;;5066374;28;20019;-72
2022/07/08 05:46:18;;;;;;;;;;;13.40;99.90;;;;;;5067907;28;19928;-73
2022/07/08 05:48:44;;;;;;;;;;;13.50;99.90;;;;;;5066260;28;20019;-73
2022/07/08 05:51:11;;;;;;;;;;;13.60;99.90;;;;;;5067160;28;20019;-73
2022/07/08 05:53:39;;;;;;;;;;;13.70;99.90;;;;;;5063623;28;20019;-74
2022/07/08 05:56:06;;;;;;;;;;;13.80;99.90;;;;;;5065039;28;19924;-73
2022/07/08 05:58:32;;;;;;;;;;;14.00;99.90;;;;;;5065584;28;20335;-73
2022/07/08 06:01:01;;;;;;;;;;;14.20;99.90;;;;;;5062456;28;20310;-73
2022/07/08 06:03:28;;;;;;;;;;;14.40;99.90;;;;;;5059339;28;19928;-73
2022/07/08 06:05:55;;;;;;;;;;;15.80;99.90;;;;;;5067970;28;20356;-73
2022/07/08 06:08:21;;;;;;;;;;;18.20;99.90;;;;;;5063754;28;19950;-74
2022/07/08 06:10:50;;;;;;;;;;;20.30;99.90;;;;;;5067017;28;19970;-74
2022/07/08 06:13:16;;;;;;;;;;;22.20;92.80;;;;;;5067841;28;19964;-73
2022/07/08 06:15:43;;;;;;;;;;;23.50;82.20;;;;;;5066039;28;20510;-74
2022/07/08 06:18:09;;;;;;;;;;;24.50;66.50;;;;;;5065936;28;19967;-74
2022/07/08 06:20:36;;;;;;;;;;;25.00;57.60;;;;;;5065387;28;20364;-74
2022/07/08 06:23:03;;;;;;;;;;;25.20;53.10;;;;;;5063989;28;19964;-74
2022/07/08 06:25:30;;;;;;;;;;;25.00;53.10;;;;;;5065842;28;20184;-74
2022/07/08 06:27:58;;;;;;;;;;;24.70;51.00;;;;;;5066938;28;19978;-74
2022/07/08 06:30:26;;;;;;;;;;;24.60;49.90;;;;;;5061267;28;19955;-73
2022/07/08 06:32:52;;;;;;;;;;;24.70;51.00;;;;;;5066137;28;19925;-74
2022/07/08 06:35:19;;;;;;;;;;;25.40;48.30;;;;;;5065236;28;19987;-74
2022/07/08 06:37:46;;;;;;;;;;;25.20;46.70;;;;;;5066811;28;19971;-75
2022/07/08 06:40:13;;;;;;;;;;;25.90;46.10;;;;;;5065380;28;20016;-74
2022/07/08 06:42:39;;;;;;;;;;;26.30;42.50;;;;;;5063297;28;19924;-74
2022/07/08 06:45:09;;;;;;;;;;;26.30;41.50;;;;;;5061325;28;20026;-74
2022/07/08 06:47:36;;;;;;;;;;;26.90;39.40;;;;;;5061722;28;19933;-75
2022/07/08 06:50:02;;;;;;;;;;;27.10;38.40;;;;;;5061899;28;20040;-74
2022/07/08 06:52:29;;;;;;;;;;;27.50;37.40;;;;;;5065708;28;20003;-72
2022/07/08 06:54:57;;;;;;;;;;;27.70;32.90;;;;;;5059184;28;20412;-72
2022/07/08 06:57:24;;;;;;;;;;;27.30;32.50;;;;;;5059552;28;19924;-73
2022/07/08 06:59:51;;;;;;;;;;;27.00;32.80;;;;;;5059695;28;19986;-73
2022/07/08 07:02:19;;;;;;;;;;;26.60;52.90;;;;;;5065151;28;20009;-74
2022/07/08 07:04:45;;;;;;;;;;;26.90;52.10;;;;;;5060078;28;20006;-74
2022/07/08 07:07:12;;;;;;;;;;;26.00;72.10;;;;;;5063491;28;20029;-74
2022/07/08 07:09:39;;;;;;;;;;;26.00;73.10;;;;;;5058575;28;19963;-75
2022/07/08 07:12:06;;;;;;;;;;;;;;;;;;5062314;28;19943;-74
2022/07/08 07:14:33;;;;;;;;;;;;;;;;;;5057591;28;19932;-75
2022/07/08 07:17:00;;;;;;;;;;;;;;;;;;5061330;28;19972;-74
2022/07/08 07:19:27;;;;;;;;;;;;;;;;;;5059455;28;19983;-73
2022/07/08 07:21:54;;;;;;;;;;;;;;;;;;5052294;28;20344;-74
2022/07/08 07:24:21;;;;;;;;;;;;;;;;;;5060365;28;20063;-74
2022/07/08 07:26:48;;;;;;;;;;;;;;;;;;5054668;28;19932;-74
2022/07/08 07:29:15;;;;;;;;;;;;;;;;;;5055016;28;19935;-73
2022/07/08 07:31:42;;;;;;;;;;;;;;;;;;5057742;28;20312;-74
2022/07/08 07:34:09;;;;;;;;;;;;;;;;;;5055817;28;20043;-74
2022/07/08 07:36:37;;;;;;;;;;;;;;;;;;5058340;28;19925;-74
2022/07/08 07:39:04;;;;;;;;;;;;;;;;;;5058998;28;19933;-73
2022/07/08 07:41:31;;;;;;;;;;;;;;;;;;5058401;28;19932;-73
2022/07/08 07:43:58;;;;;;;;;;;;;;;;;;5062766;28;20394;-73
2022/07/08 07:46:26;;;;;;;;;;;26.70;72.20;;;;;;5063592;28;20964;-74
2022/07/08 07:48:53;;;;;;;;;;;25.80;31.70;;;;;;5060046;28;19979;-74
2022/07/08 07:51:21;;;;;;;;;;;24.40;35.10;;;;;;5061166;28;20446;-76
2022/07/08 07:53:48;;;;;;;;;;;24.30;37.10;;;;;;5061339;28;20043;-74
2022/07/08 07:56:15;;;;;;;;;;;24.10;37.00;;;;;;5061260;28;19932;-74
2022/07/08 07:58:41;;;;;;;;;;;25.30;34.10;;;;;;5058133;28;19997;-73
2022/07/08 08:01:08;;;;;;;;;;;26.00;33.60;;;;;;5060498;28;19939;-74
2022/07/08 08:03:36;;;;;;;;;;;26.90;31.40;;;;;;5062348;28;19924;-73
2022/07/08 08:06:06;;;;;;;;;;;27.80;29.30;;;;;;5062105;28;19972;-73
2022/07/08 08:08:32;;;;;;;;;;;28.20;28.60;;;;;;5059162;28;19931;-73
2022/07/08 08:10:59;;;;;;;;;;;29.10;26.30;;;;;;5061061;28;20047;-73
2022/07/08 08:13:26;;;;;;;;;;;25.40;29.80;;;;;;5060178;28;20003;-73
2022/07/08 08:15:53;;;;;;;;;;;24.20;34.20;;;;;;5062182;28;20108;-74
2022/07/08 08:18:20;;;;;;;;;;;25.90;31.50;;;;;;5059521;28;19975;-72
2022/07/08 08:20:48;;;;;;;;;;;27.50;29.30;;;;;;5060123;28;20606;-73
2022/07/08 08:23:15;;;;;;;;;;;28.30;27.80;;;;;;5061238;28;20445;-73
2022/07/08 08:25:42;;;;;;;;;;;28.30;27.40;;;;;;5066267;28;19970;-73
2022/07/08 08:28:09;;;;;;;;;;;29.60;26.00;;;;;;5063141;28;20045;-74
2022/07/08 08:30:36;;;;;;;;;;;29.80;24.00;;;;;;5062807;28;20352;-73
2022/07/08 08:33:02;;;;;;;;;;;30.10;23.60;;;;;;5067154;28;20403;-75
2022/07/08 08:35:29;;;;;;;;;;;29.30;22.60;;;;;;5068322;28;19925;-75
2022/07/08 08:37:57;;;;;;;;;;;29.60;23.10;;;;;;5065818;28;19933;-74
2022/07/08 08:40:24;;;;;;;;;;;29.20;23.60;;;;;;5064205;28;20383;-74
2022/07/08 08:42:51;;;;;;;;;;;28.80;23.30;;;;;;5066396;28;19942;-74
2022/07/08 08:45:18;;;;;;;;;;;28.50;24.20;;;;;;5061803;28;19943;-75
2022/07/08 08:47:46;;;;;;;;;;;29.10;23.70;;;;;;5063373;28;20303;-72
2022/07/08 08:53:00;;;;;;;;;;;28.90;22.60;;;;;;5068806;28;20398;-74
2022/07/08 08:55:28;;;;;;;;;;;29.30;22.30;;;;;;5065436;28;19978;-74
2022/07/08 08:57:55;;;;;;;;;;;;;;;;;;5063951;28;20015;-73
2022/07/08 09:00:22;;;;;;;;;;;29.90;20.70;;;;;;5057146;28;19931;-75
2022/07/08 09:02:49;;;;;;;;;;;30.30;20.80;;;;;;5067435;28;20342;-74
2022/07/08 09:05:16;;;;;;;;;;;28.40;21.60;;;;;;5064604;28;19964;-74
2022/07/08 09:07:42;;;;;;;;;;;27.90;23.80;;;;;;5061817;28;19932;-74
2022/07/08 09:10:11;;;;;;;;;;;28.30;22.80;;;;;;5066964;28;20035;-73
2022/07/08 09:12:38;;;;;;;;;;;28.00;23.30;;;;;;5068463;28;19924;-74
2022/07/08 09:15:05;;;;;;;;;;;28.30;23.20;;;;;;5066386;28;19963;-74
2022/07/08 09:17:32;;;;;;;;;;;28.70;23.30;;;;;;5068140;28;19956;-74
2022/07/08 09:20:01;;;;;;;;;;;28.70;22.10;;;;;;5061108;28;19925;-74
2022/07/08 09:22:27;;;;;;;;;;;26.90;24.50;;;;;;5064001;28;20417;-74
2022/07/08 09:24:56;;;;;;;;;;;26.30;25.10;;;;;;5062334;28;20364;-74
2022/07/08 09:27:24;;;;;;;;;;;28.00;24.40;;;;;;5067031;28;19925;-74
2022/07/08 09:29:58;;;;;;;;;;;28.40;23.00;;;;;;5065281;28;20287;-74
2022/07/08 09:32:25;;;;;;;;;;;27.60;23.20;;;;;;5068708;28;20019;-74
2022/07/08 09:34:51;;;;;;;;;;;28.20;22.70;;;;;;5062550;28;20383;-75
2022/07/08 09:37:19;;;;;;;;;;;28.50;22.20;;;;;;5062691;28;19955;-75
2022/07/08 09:39:46;;;;;;;;;;;28.50;22.50;;;;;;5060420;28;20054;-74
2022/07/08 09:42:14;;;;;;;;;;;28.60;21.30;;;;;;5068769;28;19925;-73
2022/07/08 09:44:43;;;;;;;;;;;28.70;21.70;;;;;;5059895;28;19925;-73
2022/07/08 09:47:11;;;;;;;;;;;28.70;21.40;;;;;;5058028;28;19929;-73
2022/07/08 09:49:39;;;;;;;;;;;28.70;21.10;;;;;;5059509;28;20288;-73
2022/07/08 09:52:06;;;;;;;;;;;28.80;21.20;;;;;;5066655;28;20054;-73
2022/07/08 09:54:33;;;;;;;;;;;29.40;20.10;;;;;;5064494;28;19924;-74
2022/07/08 09:57:01;;;;;;;;;;;29.20;20.10;;;;;;5062484;28;20513;-72
2022/07/08 09:59:28;;;;;;;;;;;28.90;20.40;;;;;;5058001;28;19936;-73
2022/07/08 10:01:56;;;;;;;;;;;29.10;20.70;;;;;;5066579;28;19924;-73
2022/07/08 10:04:24;;;;;;;;;;;28.00;20.60;;;;;;5061940;28;19932;-73
2022/07/08 10:06:50;;;;;;;;;;;28.00;22.10;;;;;;5063012;28;20294;-73
2022/07/08 10:09:17;;;;;;;;;;;28.30;20.60;;;;;;5063305;28;19930;-73
2022/07/08 10:11:44;;;;;;;;;;;28.00;21.80;;;;;;5058256;28;20339;-73
2022/07/08 10:14:11;;;;;;;;;;;28.30;21.00;;;;;;5061299;28;20019;-74
2022/07/08 10:16:39;;;;;;;;;;;28.30;20.90;;;;;;5069681;28;20065;-73
2022/07/08 10:19:09;;;;;;;;;;;27.20;22.10;;;;;;5068672;28;19974;-72
2022/07/08 10:21:37;;;;;;;;;;;26.10;22.80;;;;;;5071101;28;20027;-74
2022/07/08 10:24:07;;;;;;;;;;;24.30;25.90;;;;;;5066775;28;20283;-74
2022/07/08 10:26:36;;;;;;;;;;;23.50;28.10;;;;;;5071527;28;19959;-74
2022/07/08 10:29:04;;;;;;;;;;;22.80;30.00;;;;;;5068425;28;19925;-74
2022/07/08 10:31:41;;;;;;;;;;;22.20;32.50;;;;;;5070621;28;20413;-74
2022/07/08 10:34:09;;;;;;;;;;;22.90;32.50;;;;;;5067557;28;21058;-73
2022/07/08 10:36:41;;;;;;;;;;;23.20;31.60;;;;;;5064515;28;19924;-73
2022/07/08 10:39:09;;;;;;;;;;;23.40;31.00;;;;;;5069131;28;19959;-73
2022/07/08 10:41:37;;;;;;;;;;;23.70;31.00;;;;;;5071170;28;20280;-72
2022/07/08 10:44:05;;;;;;;;;;;23.60;32.00;;;;;;5068319;28;19924;-72
2022/07/08 10:46:32;;;;;;;;;;;23.90;31.40;;;;;;5070881;28;20487;-72
2022/07/08 10:48:59;;;;;;;;;;;24.00;29.90;;;;;;5067350;28;20003;-73
2022/07/08 10:51:56;;;;;;;;;;;23.50;30.00;;;;;;5071035;28;19924;-73
2022/07/08 10:54:36;;;;;;;;;;;23.20;31.50;;;;;;5069064;28;20366;-73
2022/07/08 10:57:07;;;;;;;;;;;22.90;31.70;;;;;;5069460;28;19972;-72
2022/07/08 10:59:35;;;;;;;;;;;22.90;31.90;;;;;;5068831;28;19971;-74
2022/07/08 11:02:03;;;;;;;;;;;22.80;33.30;;;;;;5068536;28;19925;-73
2022/07/08 11:04:32;;;;;;;;;;;23.20;32.60;;;;;;5067866;28;20132;-72
2022/07/08 11:07:17;;;;;;;;;;;23.30;32.60;;;;;;5070677;28;19932;-73
2022/07/08 11:09:46;;;;;;;;;;;23.70;32.70;;;;;;5066678;28;19952;-74
2022/07/08 11:12:13;;;;;;;;;;;23.80;32.50;;;;;;5069873;28;20011;-74
2022/07/08 11:14:42;;;;;;;;;;;24.10;31.60;;;;;;5067317;28;19982;-74
2022/07/08 11:17:13;;;;;;;;;;;24.10;32.30;;;;;;5070636;28;20023;-74
2022/07/08 11:19:40;;;;;;;;;;;24.30;31.70;;;;;;5069221;28;19925;-74
2022/07/08 11:22:07;;;;;;;;;;;24.10;31.80;;;;;;5069452;28;19956;-74
2022/07/08 11:24:34;;;;;;;;;;;24.10;32.00;;;;;;5068179;28;20344;-74
2022/07/08 11:27:02;;;;;;;;;;;24.40;32.20;;;;;;5070255;28;20035;-74
2022/07/08 11:29:29;;;;;;;;;;;24.60;31.70;;;;;;5060688;28;19931;-74
2022/07/08 11:31:57;;;;;;;;;;;24.50;31.70;;;;;;5057571;28;20367;-74
2022/07/08 11:34:24;;;;;;;;;;;24.60;31.50;;;;;;5068044;28;20367;-73
2022/07/08 11:36:54;;;;;;;;;;;24.70;31.10;;;;;;5070466;28;19929;-73
2022/07/08 11:39:21;;;;;;;;;;;24.80;31.90;;;;;;5068746;28;19935;-73
2022/07/08 11:41:48;;;;;;;;;;;24.60;31.60;;;;;;5068561;28;20040;-74
2022/07/08 11:44:18;;;;;;;;;;;24.60;31.90;;;;;;5068487;28;19925;-74
2022/07/08 11:46:45;;;;;;;;;;;24.90;31.10;;;;;;5069612;28;19936;-73
2022/07/08 11:49:12;;;;;;;;;;;25.00;31.10;;;;;;5068309;28;19932;-74
2022/07/08 11:51:39;;;;;;;;;;;24.30;33.00;;;;;;5068790;28;19924;-74
2022/07/08 11:54:07;;;;;;;;;;;23.70;33.30;;;;;;5068859;28;19924;-74
2022/07/08 11:56:34;;;;;;;;;;;23.50;34.40;;;;;;5070285;28;19986;-74
2022/07/08 11:59:00;;;;;;;;;;;24.10;33.80;;;;;;5069035;28;19940;-73
2022/07/08 12:01:30;;;;;;;;;;;24.40;33.10;;;;;;5068185;28;20019;-72
2022/07/08 12:03:57;;;;;;;;;;;24.60;31.80;;;;;;5068366;28;19929;-74
2022/07/08 12:06:23;;;;;;;;;;;24.70;31.90;;;;;;5071874;28;19975;-74
2022/07/08 12:08:50;;;;;;;;;;;24.40;32.40;;;;;;5071913;28;20453;-74
2022/07/08 12:11:18;;;;;;;;;;;24.10;32.90;;;;;;5073859;28;19924;-74
2022/07/08 12:13:46;;;;;;;;;;;24.20;34.30;;;;;;5058731;28;19925;-74
2022/07/08 12:16:27;;;;;;;;;;;24.10;33.20;;;;;;5071759;28;20027;-73
2022/07/08 12:18:55;;;;;;;;;;;23.80;34.10;;;;;;5071904;28;20019;-74
2022/07/08 12:21:22;;;;;;;;;;;23.80;33.90;;;;;;5073637;28;19925;-75
2022/07/08 12:23:55;;;;;;;;;;;24.00;33.00;;;;;;5073007;28;19956;-74
2022/07/08 12:26:22;;;;;;;;;;;24.70;32.50;;;;;;5073010;28;19936;-74
2022/07/08 12:28:49;;;;;;;;;;;25.20;31.90;;;;;;5073519;28;19980;-74
2022/07/08 12:31:30;;;;;;;;;;;25.40;31.40;;;;;;5070662;28;20265;-73
2022/07/08 12:34:02;;;;;;;;;;;25.20;30.90;;;;;;5069712;28;20351;-73
2022/07/08 12:36:29;;;;;;;;;;;24.60;32.60;;;;;;5073525;28;19936;-74
2022/07/08 12:38:56;;;;;;;;;;;24.40;32.50;;;;;;5072725;28;20367;-73
2022/07/08 12:41:22;;;;;;;;;;;24.60;33.00;;;;;;5072041;28;19935;-75
2022/07/08 12:43:49;;;;;;;;;;;25.20;31.40;;;;;;5071988;28;19947;-74
2022/07/08 12:46:16;;;;;;;;;;;25.30;32.10;;;;;;5072971;28;20018;-73
2022/07/08 12:48:42;;;;;;;;;;;25.70;31.60;;;;;;5071110;28;20019;-71
2022/07/08 12:51:11;;;;;;;;;;;25.80;29.70;;;;;;5072623;28;19931;-72
2022/07/08 12:53:40;;;;;;;;;;;25.80;29.40;;;;;;5072291;28;19974;-72
2022/07/08 12:56:07;;;;;;;;;;;25.80;29.50;;;;;;5071518;28;19925;-73
2022/07/08 12:58:34;;;;;;;;;;;26.00;29.80;;;;;;5072757;28;19932;-74
2022/07/08 13:01:01;;;;;;;;;;;25.20;29.40;;;;;;5071876;28;19932;-72
2022/07/08 13:03:28;;;;;;;;;;;25.40;29.80;;;;;;5071666;28;20271;-72
2022/07/08 13:05:55;;;;;;;;;;;25.80;29.60;;;;;;5071416;28;20334;-73
2022/07/08 13:08:23;;;;;;;;;;;25.30;30.50;;;;;;5072186;28;20019;-73
2022/07/08 13:10:50;;;;;;;;;;;25.00;30.20;;;;;;5072450;28;19991;-71
2022/07/08 13:13:16;;;;;;;;;;;25.60;30.20;;;;;;5071765;28;19978;-72
2022/07/08 13:15:43;;;;;;;;;;;26.20;29.50;;;;;;5072102;28;19931;-72
2022/07/08 13:18:11;;;;;;;;;;;26.50;28.60;;;;;;5071943;28;19931;-73
2022/07/08 13:20:37;;;;;;;;;;;26.50;28.60;;;;;;5071244;28;19925;-72
2022/07/08 13:23:04;;;;;;;;;;;26.40;28.50;;;;;;5071031;28;19924;-74
2022/07/08 13:25:32;;;;;;;;;;;26.90;28.60;;;;;;5072859;28;19935;-72
2022/07/08 13:27:59;;;;;;;;;;;27.20;27.60;;;;;;5072329;28;20023;-71
2022/07/08 13:30:26;;;;;;;;;;;26.60;27.00;;;;;;5070093;28;20007;-73
2022/07/08 13:32:53;;;;;;;;;;;25.70;28.10;;;;;;5068977;28;19924;-73
2022/07/08 13:35:20;;;;;;;;;;;25.60;28.90;;;;;;5071078;28;20402;-73
2022/07/08 13:37:47;;;;;;;;;;;25.50;29.60;;;;;;5071404;28;20041;-73
2022/07/08 13:40:13;;;;;;;;;;;25.60;29.00;;;;;;5071458;28;19956;-73
2022/07/08 13:42:42;;;;;;;;;;;25.60;28.70;;;;;;5072600;28;19967;-72
2022/07/08 13:45:09;;;;;;;;;;;25.90;28.40;;;;;;5071415;28;20439;-72
2022/07/08 13:47:35;;;;;;;;;;;26.50;28.20;;;;;;5071792;28;19924;-72
2022/07/08 13:50:02;;;;;;;;;;;27.00;27.60;;;;;;5068716;28;20018;-72
2022/07/08 13:52:29;;;;;;;;;;;27.10;27.80;;;;;;5069917;28;19932;-72
2022/07/08 13:54:56;;;;;;;;;;;27.10;27.20;;;;;;5070830;28;19931;-72
2022/07/08 13:57:22;;;;;;;;;;;26.00;28.00;;;;;;5071847;28;20023;-72
2022/07/08 13:59:51;;;;;;;;;;;25.90;28.70;;;;;;5071610;28;19986;-72
2022/07/08 14:02:17;;;;;;;;;;;25.80;29.30;;;;;;5071958;28;19964;-73
2022/07/08 14:04:44;;;;;;;;;;;25.80;30.60;;;;;;5071789;28;19924;-73
2022/07/08 14:07:11;;;;;;;;;;;26.30;28.50;;;;;;5071502;28;20391;-73
2022/07/08 14:09:38;;;;;;;;;;;26.50;28.00;;;;;;5067316;28;20015;-74
2022/07/08 14:12:05;;;;;;;;;;;26.80;27.80;;;;;;5071506;28;20375;-73
2022/07/08 14:14:32;;;;;;;;;;;26.70;27.60;;;;;;5069845;28;19934;-72
2022/07/08 14:17:00;;;;;;;;;;;26.70;27.60;;;;;;5068533;28;19931;-72
2022/07/08 14:19:30;;;;;;;;;;;27.00;27.60;;;;;;5068241;28;19924;-73
2022/07/08 14:21:56;;;;;;;;;;;27.00;26.90;;;;;;5071473;28;19924;-72
2022/07/08 14:24:24;;;;;;;;;;;27.10;26.80;;;;;;5069581;28;20008;-72
2022/07/08 14:26:51;;;;;;;;;;;27.10;26.40;;;;;;5066844;28;19928;-72